This is the latest recevied weather packets stored in our database for station/object DG9BJA-13. If no packets are shown the sender has not sent any weather packets the latest 10 day(s).
| Time | Temp. | Humidity | Pressure | Rain* | Wind** | Luminosity | Snow |
|---|---|---|---|---|---|---|---|
| 1777803376 | 23.33° C | 60% | 1010.5 hPa | 0 mm | - | 664 W/m² | - |
| 1777802776 | 22.78° C | 61% | 1010.6 hPa | 0 mm | - | 476 W/m² | - |
| 1777802176 | 23.33° C | 60% | 1010.6 hPa | 0 mm | - | 587 W/m² | - |
| 1777801576 | 23.33° C | 60% | 1010.6 hPa | 0 mm | - | 715 W/m² | - |
| 1777800976 | 22.78° C | 63% | 1010.8 hPa | 0 mm | - | 668 W/m² | - |
| 1777800376 | 22.22° C | 67% | 1011 hPa | 0 mm | - | 694 W/m² | - |
| 1777799776 | 21.67° C | 72% | 1011 hPa | 0 mm | - | 700 W/m² | - |
| 1777799176 | 21.11° C | 70% | 1011 hPa | 0 mm | - | 388 W/m² | - |
| 1777798576 | 21.67° C | 70% | 1011.2 hPa | 0 mm | - | 371 W/m² | - |
| 1777797976 | 21.11° C | 70% | 1011.2 hPa | 0 mm | - | 533 W/m² | - |
| 1777797376 | 21.11° C | 71% | 1011.5 hPa | 0 mm | - | 650 W/m² | - |
| 1777796776 | 20° C | 74% | 1011.6 hPa | 0 mm | - | 594 W/m² | - |
| 1777796176 | 19.44° C | 76% | 1011.6 hPa | 0 mm | - | 478 W/m² | - |
| 1777795576 | 20° C | 75% | 1011.5 hPa | 0 mm | - | 448 W/m² | - |
| 1777794976 | 20° C | 76% | 1011.6 hPa | 0 mm | - | 501 W/m² | - |
| 1777794376 | 20° C | 75% | 1011.6 hPa | 0 mm | - | 520 W/m² | - |
| 1777793776 | 19.44° C | 77% | 1011.6 hPa | 0 mm | - | 506 W/m² | - |
| 1777793176 | 18.89° C | 81% | 1011.6 hPa | 0 mm | - | 497 W/m² | - |
| 1777792575 | 18.33° C | 85% | 1011.6 hPa | 0 mm | - | 434 W/m² | - |
| 1777791975 | 17.22° C | 87% | 1011.5 hPa | 0 mm | - | 385 W/m² | - |
| 1777791376 | 16.11° C | 89% | 1011.5 hPa | 0 mm | - | 323 W/m² | - |
| 1777790776 | 15.56° C | 90% | 1011.5 hPa | 0 mm | - | 149 W/m² | - |
| 1777790175 | 15.56° C | 91% | 1011.5 hPa | 0 mm | - | 125 W/m² | - |
| 1777789575 | 15.56° C | 91% | 1011.5 hPa | 0 mm | - | 109 W/m² | - |
| 1777788975 | 15° C | 92% | 1011.5 hPa | 0 mm | - | 107 W/m² | - |
* Rain latest hour (hover to see other rain measurements)
** Current wind speed in m/s (hover to see current wind gust speed)